Time;durP1;ratioP1;P1;durP2;ratioP2;P2;SDS_P1;SDS_P2;PMS_P1;PMS_P2;Temp;Humidity;BMP_temperature;BMP_pressure;BME280_temperature;BME280_humidity;BME280_pressure;Samples;Min_cycle;Max_cycle;Signal;HPM_P1;HPM_P2
2022/01/02 00:01:16;;;;;;;8.13;2.90;;;;;;;2.59;100.00;99329.63;1785117;80;21307;-84
2022/01/02 00:04:25;;;;;;;3.90;2.98;;;;;;;2.54;100.00;99335.47;1783535;80;21308;-84
2022/01/02 00:07:31;;;;;;;7.35;3.42;;;;;;;2.49;100.00;99347.69;1784392;80;21716;-84
2022/01/02 00:10:53;;;;;;;3.60;2.72;;;;;;;2.44;100.00;99347.28;1784831;80;21371;-84
2022/01/02 00:14:02;;;;;;;4.65;2.80;;;;;;;2.42;100.00;99346.59;1784638;80;21184;-83
2022/01/02 00:17:09;;;;;;;7.22;2.70;;;;;;;2.43;100.00;99350.98;1785214;80;21178;-83
2022/01/02 00:20:17;;;;;;;4.03;2.83;;;;;;;2.43;100.00;99349.14;1780817;80;21217;-83
2022/01/02 00:23:29;;;;;;;5.17;2.85;;;;;;;2.42;100.00;99364.14;1772156;81;21740;-84
2022/01/02 00:26:44;;;;;;;6.00;2.55;;;;;;;2.37;100.00;99362.38;1770447;81;21327;-83
2022/01/02 00:29:49;;;;;;;5.03;2.00;;;;;;;2.34;100.00;99359.47;1771502;81;21732;-84
2022/01/02 00:32:55;;;;;;;2.87;2.33;;;;;;;2.32;100.00;99367.38;1771414;81;21831;-83
2022/01/02 00:36:04;;;;;;;3.83;2.20;;;;;;;2.29;100.00;99363.95;1771324;81;21287;-83
2022/01/02 00:39:08;;;;;;;4.12;2.62;;;;;;;2.29;100.00;99365.80;1769987;81;21296;-83
2022/01/02 00:42:16;;;;;;;4.37;2.33;;;;;;;2.27;100.00;99364.61;1770440;81;21807;-82
2022/01/02 00:45:36;;;;;;;4.12;2.30;;;;;;;2.24;100.00;99364.89;1770128;81;21296;-82
2022/01/02 00:48:42;;;;;;;3.85;2.60;;;;;;;2.23;100.00;99367.25;1771405;81;21284;-82
2022/01/02 00:51:49;;;;;;;4.62;2.30;;;;;;;2.22;100.00;99382.24;1771341;81;21713;-82
2022/01/02 00:54:54;;;;;;;3.70;2.75;;;;;;;2.20;100.00;99368.87;1770331;81;21340;-82
2022/01/02 00:58:06;;;;;;;5.08;2.70;;;;;;;2.20;100.00;99374.77;1771375;81;21295;-82
2022/01/02 01:01:13;;;;;;;4.50;2.50;;;;;;;2.20;100.00;99375.63;1771207;81;21827;-82
2022/01/02 01:04:18;;;;;;;4.40;3.52;;;;;;;2.18;100.00;99380.33;1769846;81;21311;-82
2022/01/02 01:07:24;;;;;;;2.95;2.20;;;;;;;2.17;100.00;99392.13;1769869;81;21590;-82
2022/01/02 01:10:34;;;;;;;3.17;2.30;;;;;;;2.18;100.00;99395.17;1769977;81;21301;-83
2022/01/02 01:13:40;;;;;;;3.60;2.30;;;;;;;2.19;100.00;99396.02;1771549;81;21260;-83
2022/01/02 01:16:46;;;;;;;4.67;2.35;;;;;;;2.17;100.00;99402.91;1771241;81;21209;-83
2022/01/02 01:19:53;;;;;;;3.52;2.10;;;;;;;2.15;100.00;99404.05;1771362;81;21162;-83
2022/01/02 01:23:00;;;;;;;4.20;2.42;;;;;;;2.14;100.00;99404.55;1784372;80;21511;-82
2022/01/02 01:26:07;;;;;;;2.15;1.92;;;;;;;2.14;100.00;99405.05;1783693;80;21758;-83
2022/01/02 01:29:13;;;;;;;2.75;2.27;;;;;;;2.14;100.00;99395.09;1785023;80;21304;-82
2022/01/02 01:32:18;;;;;;;2.60;1.80;;;;;;;2.14;100.00;99400.49;1784726;80;21248;-82
2022/01/02 01:35:24;;;;;;;2.60;1.80;;;;;;;2.14;100.00;99407.74;1783558;80;21350;-82
2022/01/02 01:38:29;;;;;;;3.12;2.30;;;;;;;2.13;100.00;99404.20;1783817;80;21224;-82
2022/01/02 01:41:48;;;;;;;5.28;1.80;;;;;;;2.15;100.00;99410.28;1783590;80;21240;-82
2022/01/02 01:45:42;;;;;;;2.67;1.98;;;;;;;2.14;100.00;99404.55;1784866;80;21855;-82
2022/01/02 01:48:10;;;;;;;4.25;2.02;;;;;;;2.13;100.00;99414.98;1776560;80;21514;-82
2022/01/02 01:51:16;;;;;;;2.25;1.77;;;;;;;2.13;100.00;99420.38;1785070;80;21356;-82
2022/01/02 01:54:21;;;;;;;2.40;1.70;;;;;;;2.12;100.00;99421.39;1783445;80;21319;-81
2022/01/02 01:57:27;;;;;;;3.35;1.80;;;;;;;2.10;100.00;99419.31;1783467;80;21223;-81
2022/01/02 02:00:37;;;;;;;2.85;1.60;;;;;;;2.09;100.00;99427.06;1784174;80;21378;-82
2022/01/02 02:03:45;;;;;;;2.55;1.30;;;;;;;2.09;100.00;99429.75;1784990;80;21366;-81
2022/01/02 02:06:54;;;;;;;3.27;1.57;;;;;;;2.13;100.00;99436.56;1784961;80;21178;-81
2022/01/02 02:10:54;;;;;;;1.90;1.20;;;;;;;2.14;100.00;99428.83;1785141;80;21341;-81
2022/01/02 02:13:12;;;;;;;4.33;1.32;;;;;;;2.14;100.00;99439.61;1778875;80;21173;-79
2022/01/02 02:16:21;;;;;;;1.57;1.15;;;;;;;2.16;100.00;99431.37;1783951;80;21224;-81
2022/01/02 02:19:27;;;;;;;2.12;1.35;;;;;;;2.18;100.00;99426.70;1785016;80;21308;-82
2022/01/02 02:22:33;;;;;;;1.75;1.22;;;;;;;2.18;100.00;99436.98;1779937;80;21371;-82
2022/01/02 02:25:43;;;;;;;1.25;1.15;;;;;;;2.18;100.00;99456.38;1770799;81;21336;-82
2022/01/02 02:28:48;;;;;;;1.82;1.30;;;;;;;2.19;100.00;99449.98;1770472;81;21208;-80
2022/01/02 02:31:54;;;;;;;3.22;1.20;;;;;;;2.17;100.00;99455.53;1771274;81;21241;-82
2022/01/02 02:34:58;;;;;;;1.37;1.10;;;;;;;2.16;100.00;99444.35;1771282;81;21145;-82
2022/01/02 02:38:04;;;;;;;2.15;1.12;;;;;;;2.15;100.00;99445.36;1771210;81;21307;-82
2022/01/02 02:41:12;;;;;;;1.77;1.15;;;;;;;2.13;100.00;99452.76;1771243;81;21842;-82
2022/01/02 02:44:35;;;;;;;1.62;1.20;;;;;;;2.12;100.00;99453.76;1770333;81;21300;-83
2022/01/02 02:50:55;;;;;;;0.93;0.93;;;;;;;2.11;100.00;99454.73;1771293;81;21661;-82
2022/01/02 02:53:59;;;;;;;2.75;1.22;;;;;;;2.11;100.00;99478.16;1769857;81;21358;-81
2022/01/02 02:57:12;;;;;;;2.37;1.30;;;;;;;2.10;100.00;99477.31;1770168;81;21209;-81
2022/01/02 03:00:14;;;;;;;2.27;1.30;;;;;;;2.09;100.00;99478.81;1771285;81;21300;-81
2022/01/02 03:03:20;;;;;;;1.85;1.40;;;;;;;2.08;100.00;99485.21;1771255;81;21351;-82
2022/01/02 03:06:26;;;;;;;1.92;1.25;;;;;;;2.05;100.00;99488.53;1770642;81;21288;-82
2022/01/02 03:09:47;;;;;;;1.60;1.42;;;;;;;2.03;100.00;99490.53;1771307;81;21574;-81
2022/01/02 03:12:47;;;;;;;1.70;1.17;;;;;;;2.01;100.00;99503.79;1770048;81;21300;-81
2022/01/02 03:15:54;;;;;;;1.62;1.20;;;;;;;1.99;100.00;99497.20;1771137;81;21325;-81
2022/01/02 03:19:01;;;;;;;1.00;0.90;;;;;;;1.98;100.00;99509.48;1771001;81;21201;-81
2022/01/02 03:22:08;;;;;;;1.22;1.00;;;;;;;1.99;100.00;99513.88;1769733;80;21735;-81
2022/01/02 03:25:14;;;;;;;1.37;1.20;;;;;;;2.01;100.00;99514.08;1783127;80;21188;-81
2022/01/02 03:28:21;;;;;;;2.55;1.30;;;;;;;1.99;100.00;99530.91;1784756;80;21818;-81
2022/01/02 03:31:27;;;;;;;2.35;1.70;;;;;;;1.98;100.00;99530.56;1784779;80;21786;-81
2022/01/02 03:34:32;;;;;;;4.10;2.30;;;;;;;1.98;100.00;99539.16;1784416;80;21370;-81
2022/01/02 03:37:37;;;;;;;3.10;1.90;;;;;;;1.94;100.00;99545.32;1783518;80;21275;-82
2022/01/02 03:40:42;;;;;;;2.55;1.70;;;;;;;1.95;100.00;99547.52;1784645;80;21818;-82
2022/01/02 03:43:48;;;;;;;3.35;1.92;;;;;;;1.94;100.00;99560.66;1784727;80;21299;-82
2022/01/02 03:46:46;;;;;;;1.20;1.10;;;;;;;1.87;100.00;99560.84;1783623;80;21220;-79
2022/01/02 03:49:53;;;;;;;1.80;1.27;;;;;;;1.75;100.00;99581.19;1784158;80;21205;-82
2022/01/02 03:52:59;;;;;;;1.45;1.35;;;;;;;1.67;100.00;99582.37;1784714;80;21728;-82
2022/01/02 03:56:05;;;;;;;2.33;1.57;;;;;;;1.63;100.00;99589.02;1784712;80;21360;-82
2022/01/02 03:59:12;;;;;;;6.87;2.70;;;;;;;1.61;100.00;99585.62;1783324;80;21188;-82
2022/01/02 04:02:18;;;;;;;4.87;3.65;;;;;;;1.58;100.00;99580.49;1784721;80;21327;-82
2022/01/02 04:05:25;;;;;;;8.15;4.67;;;;;;;1.57;100.00;99576.09;1783857;80;21783;-82
2022/01/02 04:08:31;;;;;;;7.92;4.83;;;;;;;1.58;100.00;99576.45;1783255;80;21369;-82
2022/01/02 04:11:37;;;;;;;15.10;6.75;;;;;;;1.58;100.00;99608.80;1784682;80;21849;-82
2022/01/02 04:14:42;;;;;;;19.95;10.58;;;;;;;1.57;100.00;99608.94;1784772;80;21339;-82
2022/01/02 04:17:48;;;;;;;18.70;8.78;;;;;;;1.59;100.00;99611.84;1783197;80;21224;-82
2022/01/02 04:20:54;;;;;;;19.70;10.60;;;;;;;1.62;100.00;99626.91;1783691;80;21327;-81
2022/01/02 04:24:00;;;;;;;26.77;15.90;;;;;;;1.60;100.00;99617.62;1784167;80;21831;-82
2022/01/02 04:27:05;;;;;;;22.27;12.63;;;;;;;1.62;100.00;99618.32;1771045;81;21498;-82
2022/01/02 04:30:14;;;;;;;24.07;13.20;;;;;;;1.61;100.00;99626.55;1771284;81;21303;-82
2022/01/02 04:33:19;;;;;;;29.10;14.18;;;;;;;1.62;100.00;99630.45;1771451;81;21297;-82
2022/01/02 04:36:24;;;;;;;24.70;12.98;;;;;;;1.63;100.00;99638.05;1770152;81;21336;-82
2022/01/02 04:39:29;;;;;;;8.58;4.20;;;;;;;1.62;100.00;99642.58;1771187;81;21283;-82
2022/01/02 04:42:34;;;;;;;7.22;4.65;;;;;;;1.61;100.00;99645.42;1771173;81;21459;-82
2022/01/02 04:45:40;;;;;;;14.70;7.00;;;;;;;1.59;100.00;99666.25;1771160;81;21396;-82
2022/01/02 04:48:46;;;;;;;8.08;5.25;;;;;;;1.56;100.00;99647.67;1769905;81;21744;-82
2022/01/02 04:51:53;;;;;;;13.78;8.30;;;;;;;1.55;100.00;99673.75;1769907;81;21365;-82
2022/01/02 04:54:56;;;;;;;17.07;8.25;;;;;;;1.52;100.00;99668.64;1771112;81;21181;-83
2022/01/02 04:58:03;;;;;;;14.38;7.47;;;;;;;1.51;100.00;99694.75;1770650;81;21847;-83
2022/01/02 05:01:11;;;;;;;16.00;7.42;;;;;;;1.46;100.00;99692.10;1769823;81;21295;-83
2022/01/02 05:04:16;;;;;;;10.65;5.03;;;;;;;1.44;99.59;99694.05;1771491;81;21291;-83
2022/01/02 05:07:21;;;;;;;4.72;3.02;;;;;;;1.41;98.63;99701.05;1769898;81;21368;-83
2022/01/02 05:10:28;;;;;;;3.83;2.35;;;;;;;1.39;98.30;99706.58;1771276;81;21186;-82
2022/01/02 05:13:35;;;;;;;7.33;5.00;;;;;;;1.36;98.25;99704.14;1771838;81;22547;-82
2022/01/02 05:16:41;;;;;;;19.27;10.65;;;;;;;1.34;98.29;99717.41;1771227;81;21879;-82
2022/01/02 05:19:49;;;;;;;17.75;8.30;;;;;;;1.33;98.20;99735.41;1771314;81;21295;-82
2022/01/02 05:22:57;;;;;;;5.80;4.03;;;;;;;1.31;97.55;99733.82;1771301;81;21189;-82
2022/01/02 05:26:03;;;;;;;3.75;2.77;;;;;;;1.28;96.72;99737.16;1770788;80;21244;-83
2022/01/02 05:29:09;;;;;;;3.67;2.10;;;;;;;1.27;96.84;99750.27;1770753;81;21183;-82
2022/01/02 05:32:17;;;;;;;2.98;1.92;;;;;;;1.26;97.14;99759.31;1770044;81;21295;-82
2022/01/02 05:35:23;;;;;;;4.20;2.55;;;;;;;1.24;97.36;99786.05;1769874;81;21506;-82
2022/01/02 05:38:31;;;;;;;5.60;3.30;;;;;;;1.23;97.45;99775.77;1760393;81;21331;-82
2022/01/02 05:41:38;;;;;;;9.93;3.87;;;;;;;1.25;97.59;99781.01;1770853;81;21846;-82
2022/01/02 05:44:46;;;;;;;10.72;5.30;;;;;;;1.26;97.91;99788.10;1771206;81;21292;-83
2022/01/02 05:47:52;;;;;;;8.90;4.62;;;;;;;1.25;98.35;99795.83;1771243;81;21185;-83
2022/01/02 05:51:01;;;;;;;5.60;3.20;;;;;;;1.21;97.13;99827.55;1771208;81;21773;-83
2022/01/02 05:54:07;;;;;;;6.20;2.90;;;;;;;1.22;95.55;99818.52;1771621;81;21338;-83
2022/01/02 05:57:12;;;;;;;10.63;3.27;;;;;;;1.20;94.33;99835.28;1770674;81;21866;-83
2022/01/02 06:00:19;;;;;;;9.83;3.92;;;;;;;1.19;93.63;99839.45;1769880;81;21291;-83
2022/01/02 06:03:24;;;;;;;12.58;4.72;;;;;;;1.19;93.97;99852.44;1771358;81;21189;-83
2022/01/02 06:06:29;;;;;;;5.60;3.08;;;;;;;1.18;93.46;99852.58;1771275;81;21791;-83
2022/01/02 06:09:35;;;;;;;4.72;2.58;;;;;;;1.18;93.66;99859.31;1759975;81;21293;-83
2022/01/02 06:12:40;;;;;;;2.27;1.98;;;;;;;1.16;93.40;99867.98;1770577;81;22134;-82
2022/01/02 06:15:46;;;;;;;1.57;1.10;;;;;;;1.15;93.60;99883.80;1771278;81;21296;-82
2022/01/02 06:18:53;;;;;;;2.75;1.10;;;;;;;1.10;93.47;99886.02;1770905;81;21379;-83
2022/01/02 06:21:52;;;;;;;2.62;1.17;;;;;;;1.05;93.28;99882.36;1771311;81;21295;-83
2022/01/02 06:24:58;;;;;;;1.22;1.10;;;;;;;1.01;93.09;99903.78;1769942;81;21762;-83
2022/01/02 06:28:04;;;;;;;2.25;1.80;;;;;;;0.94;92.32;99900.75;1769956;81;21347;-82
2022/01/02 06:31:11;;;;;;;2.15;1.65;;;;;;;0.87;92.37;99915.67;1771340;81;21862;-82
2022/01/02 06:34:17;;;;;;;2.15;1.70;;;;;;;0.80;92.11;99925.70;1771223;81;21819;-82
2022/01/02 06:37:23;;;;;;;5.62;2.98;;;;;;;0.72;91.98;99919.12;1770015;81;22527;-82
2022/01/02 06:40:28;;;;;;;5.05;2.25;;;;;;;0.71;92.12;99936.75;1769844;81;21229;-82
2022/01/02 06:43:34;;;;;;;3.40;2.50;;;;;;;0.76;92.18;99958.77;1770106;81;21196;-83
2022/01/02 06:46:40;;;;;;;6.97;3.02;;;;;;;0.75;92.13;99971.38;1770517;81;21498;-83
2022/01/02 06:49:44;;;;;;;5.25;2.45;;;;;;;0.80;91.88;99979.55;1770775;81;21300;-83
2022/01/02 06:52:50;;;;;;;5.10;2.10;;;;;;;0.85;91.35;99984.08;1769908;81;21221;-83
2022/01/02 06:55:55;;;;;;;6.72;2.65;;;;;;;0.89;90.41;99989.59;1769716;81;21288;-83
2022/01/02 06:59:01;;;;;;;3.87;1.72;;;;;;;0.90;89.93;99989.98;1769927;81;21870;-83
2022/01/02 07:02:07;;;;;;;2.08;1.30;;;;;;;0.94;89.01;99999.51;1771270;81;21281;-83
2022/01/02 07:05:13;;;;;;;1.50;1.02;;;;;;;0.94;88.35;100020.59;1771760;81;21331;-83
2022/01/02 07:08:19;;;;;;;5.65;1.60;;;;;;;0.96;87.97;99995.73;1771424;81;21288;-84
2022/01/02 07:11:25;;;;;;;2.47;1.40;;;;;;;0.95;88.12;100001.25;1771993;81;21198;-83
2022/01/02 07:14:30;;;;;;;4.47;2.05;;;;;;;0.96;88.63;100011.88;1769762;81;21335;-83
2022/01/02 07:17:36;;;;;;;4.35;2.60;;;;;;;0.98;88.49;100017.14;1771278;81;21291;-83
2022/01/02 07:20:42;;;;;;;11.08;3.62;;;;;;;0.99;88.50;100011.66;1769887;81;21308;-83
2022/01/02 07:23:48;;;;;;;9.98;4.37;;;;;;;1.00;87.31;100008.47;1771304;81;21831;-84
2022/01/02 07:26:54;;;;;;;11.53;5.47;;;;;;;1.00;86.45;100021.93;1771233;81;21826;-84
2022/01/02 07:30:00;;;;;;;14.85;6.70;;;;;;;0.99;86.04;100018.88;1738947;82;22559;-83
2022/01/02 07:33:07;;;;;;;11.73;6.30;;;;;;;0.99;85.75;100048.51;1740243;82;21827;-83
2022/01/02 07:36:13;;;;;;;9.73;5.78;;;;;;;0.98;85.55;100034.64;1738745;82;21240;-83
2022/01/02 07:39:22;;;;;;;13.55;6.12;;;;;;;0.94;85.39;100033.17;1717856;82;21296;-82
2022/01/02 07:42:27;;;;;;;12.40;6.13;;;;;;;0.89;84.37;100032.19;1739116;82;21311;-83
2022/01/02 07:45:35;;;;;;;13.10;6.17;;;;;;;0.84;84.31;100065.36;1740065;82;22030;-83
2022/01/02 07:48:41;;;;;;;11.63;5.70;;;;;;;0.78;82.81;100069.03;1739836;82;21319;-83
2022/01/02 07:51:47;;;;;;;9.63;5.40;;;;;;;0.74;81.14;100064.37;1740272;82;21318;-84
2022/01/02 07:54:52;;;;;;;9.88;4.45;;;;;;;0.80;81.01;100071.09;1739012;82;21759;-84
2022/01/02 07:57:59;;;;;;;12.28;4.58;;;;;;;0.85;80.22;100071.14;1739310;82;21842;-83
2022/01/02 08:01:05;;;;;;;5.87;3.72;;;;;;;0.98;78.92;100076.39;1739309;82;21323;-83
2022/01/02 08:04:11;;;;;;;5.15;2.37;;;;;;;1.06;76.74;100082.05;1739604;82;21328;-83
2022/01/02 08:07:17;;;;;;;4.15;2.40;;;;;;;1.11;75.92;100085.23;1740173;82;21822;-83
2022/01/02 08:10:22;;;;;;;4.92;2.20;;;;;;;1.12;74.32;100092.81;1738973;82;21189;-83
2022/01/02 08:13:27;;;;;;;4.42;2.12;;;;;;;1.09;73.75;100088.55;1740236;82;21818;-83
2022/01/02 08:16:33;;;;;;;6.72;1.87;;;;;;;1.08;73.78;100105.66;1740301;82;21296;-83
2022/01/02 08:19:41;;;;;;;4.45;2.50;;;;;;;1.06;73.22;100106.28;1739432;82;21264;-84
2022/01/02 08:22:45;;;;;;;3.58;1.92;;;;;;;1.04;72.92;100106.91;1740093;82;21300;-83
2022/01/02 08:25:50;;;;;;;4.10;2.20;;;;;;;1.05;72.60;100103.72;1740244;82;21169;-84
2022/01/02 08:29:01;;;;;;;4.17;1.75;;;;;;;1.04;72.65;100109.60;1754718;79;21362;-84
2022/01/02 08:32:08;;;;;;;2.65;1.62;;;;;;;1.05;72.21;100105.92;1783772;80;21291;-84
2022/01/02 08:35:14;;;;;;;2.33;1.30;;;;;;;1.02;70.92;100109.70;1784530;80;21865;-84
2022/01/02 08:38:21;;;;;;;2.50;1.70;;;;;;;1.00;71.20;100144.48;1785015;80;21719;-84
2022/01/02 08:41:27;;;;;;;2.33;1.40;;;;;;;0.99;71.56;100132.86;1784443;80;21882;-84
2022/01/02 08:44:33;;;;;;;4.50;2.62;;;;;;;0.96;70.70;100145.70;1785186;80;21288;-84
2022/01/02 08:47:38;;;;;;;3.25;1.87;;;;;;;0.96;69.82;100151.08;1785043;80;21303;-84
2022/01/02 08:50:45;;;;;;;3.67;1.90;;;;;;;0.94;68.78;100136.86;1784424;80;21287;-84
2022/01/02 08:53:51;;;;;;;2.67;1.75;;;;;;;0.93;69.17;100164.28;1784878;80;21716;-84
2022/01/02 08:56:57;;;;;;;2.22;1.45;;;;;;;0.90;68.79;100171.77;1784970;80;21802;-84
2022/01/02 09:00:02;;;;;;;2.83;1.70;;;;;;;0.88;69.16;100177.73;1785082;80;21335;-85
2022/01/02 09:03:09;;;;;;;2.75;1.70;;;;;;;0.90;68.77;100187.43;1785081;80;21818;-84
2022/01/02 09:06:15;;;;;;;3.50;1.77;;;;;;;0.85;68.31;100190.97;1784674;80;21315;-84
2022/01/02 09:09:20;;;;;;;2.17;1.60;;;;;;;0.87;68.73;100177.38;1784985;80;21292;-84
2022/01/02 09:12:25;;;;;;;3.87;2.00;;;;;;;0.90;67.85;100176.66;1784009;80;21363;-84
2022/01/02 09:15:31;;;;;;;5.20;2.20;;;;;;;0.94;67.29;100178.60;1785242;80;21300;-84
2022/01/02 09:18:37;;;;;;;4.12;2.33;;;;;;;1.02;67.72;100167.61;1785092;80;21165;-84
2022/01/02 09:21:42;;;;;;;5.92;2.50;;;;;;;1.13;68.53;100180.27;1783513;80;21324;-84
2022/01/02 09:24:48;;;;;;;1.77;1.10;;;;;;;1.22;67.71;100166.55;1784970;80;21331;-84
2022/01/02 09:27:53;;;;;;;0.98;0.85;;;;;;;1.14;66.21;100165.81;1785000;80;21239;-82
2022/01/02 09:30:59;;;;;;;4.65;2.52;;;;;;;1.03;65.45;100185.97;1783483;80;22005;-84
2022/01/02 09:34:04;;;;;;;2.37;1.67;;;;;;;0.96;66.05;100191.48;1785021;80;21347;-84
2022/01/02 09:37:09;;;;;;;1.90;1.62;;;;;;;0.90;65.84;100201.39;1785101;80;21835;-85
2022/01/02 09:40:15;;;;;;;1.10;1.00;;;;;;;0.86;66.17;100179.21;1784957;80;21292;-85
2022/01/02 09:43:23;;;;;;;0.88;0.88;;;;;;;0.84;65.77;100197.80;1783591;80;22546;-84
2022/01/02 09:46:32;;;;;;;1.62;1.00;;;;;;;0.83;65.58;100189.35;1784255;80;21201;-84
2022/01/02 09:49:39;;;;;;;1.73;1.10;;;;;;;0.82;66.36;100204.66;1785355;80;21799;-84
2022/01/02 09:52:47;;;;;;;1.70;1.25;;;;;;;0.80;65.13;100205.27;1783839;80;21243;-84
2022/01/02 09:55:54;;;;;;;3.85;2.15;;;;;;;0.76;65.12;100201.95;1785045;80;21181;-84
2022/01/02 09:59:02;;;;;;;2.30;1.50;;;;;;;0.72;65.66;100207.19;1785068;79;21310;-84
2022/01/02 10:02:11;;;;;;;2.20;1.80;;;;;;;0.70;66.18;100214.99;1783907;80;21204;-84
2022/01/02 10:05:18;;;;;;;6.47;1.42;;;;;;;0.65;65.67;100218.03;1784417;80;21184;-84
2022/01/02 10:08:39;;;;;;;1.17;1.07;;;;;;;0.68;66.12;100223.20;1784380;80;21315;-83
2022/01/02 10:11:43;;;;;;;1.57;1.20;;;;;;;0.68;62.92;100233.96;1783645;80;22504;-84
2022/01/02 10:14:50;;;;;;;2.70;1.20;;;;;;;0.67;62.41;100227.36;1783556;80;21750;-85
2022/01/02 10:18:19;;;;;;;2.02;1.35;;;;;;;0.64;63.80;100240.55;1784926;80;21303;-84
2022/01/02 10:21:41;;;;;;;2.83;1.80;;;;;;;0.62;65.63;100245.20;1784556;80;21294;-85
2022/01/02 10:24:47;;;;;;;3.37;1.50;;;;;;;0.55;66.55;100252.48;1784925;80;21577;-85
2022/01/02 10:27:53;;;;;;;4.25;1.95;;;;;;;0.50;67.48;100255.03;1763613;80;21231;-84
2022/01/02 10:31:07;;;;;;;2.90;1.72;;;;;;;0.46;67.25;100260.75;1781571;80;21212;-84
2022/01/02 10:34:14;;;;;;;3.40;1.92;;;;;;;0.43;68.16;100263.69;1779363;80;21335;-85
2022/01/02 10:37:31;;;;;;;3.85;2.00;;;;;;;0.36;68.40;100257.02;1778125;80;21941;-84
2022/01/02 10:40:40;;;;;;;4.67;2.60;;;;;;;0.35;69.22;100255.31;1779375;80;21359;-84
2022/01/02 10:43:45;;;;;;;2.62;1.72;;;;;;;0.34;68.39;100268.40;1777974;80;21881;-84
2022/01/02 10:47:15;;;;;;;3.50;2.20;;;;;;;0.31;66.20;100260.54;1778093;80;21267;-84
2022/01/02 10:50:21;;;;;;;4.47;2.10;;;;;;;0.24;64.47;100262.83;1780089;80;22512;-83
2022/01/02 10:53:26;;;;;;;2.80;1.60;;;;;;;0.20;64.47;100280.16;1778746;80;21370;-84
2022/01/02 10:56:34;;;;;;;4.87;3.05;;;;;;;0.20;63.85;100282.85;1779277;80;21322;-84
2022/01/02 10:59:40;;;;;;;4.45;2.22;;;;;;;0.22;64.36;100287.63;1778008;80;21188;-85
2022/01/02 11:02:48;;;;;;;6.28;1.92;;;;;;;0.32;64.57;100283.29;1779199;80;21220;-84
2022/01/02 11:05:55;;;;;;;3.12;1.80;;;;;;;0.34;61.84;100284.55;1779406;80;21220;-84
2022/01/02 11:09:00;;;;;;;6.10;3.75;;;;;;;0.24;59.60;100301.84;1779388;80;21315;-84
2022/01/02 11:12:06;;;;;;;2.40;1.65;;;;;;;0.02;57.67;100307.89;1778928;80;21267;-84
2022/01/02 11:15:18;;;;;;;4.58;2.50;;;;;;;-0.21;57.41;100296.55;1779460;80;21263;-84
2022/01/02 11:18:25;;;;;;;4.22;2.25;;;;;;;-0.38;59.06;100307.12;1779566;80;21806;-84
2022/01/02 11:21:31;;;;;;;7.90;3.10;;;;;;;-0.47;59.39;100317.17;1779431;80;21771;-84
2022/01/02 11:24:40;;;;;;;5.45;3.25;;;;;;;-0.49;59.78;100307.02;1778191;80;21351;-84
2022/01/02 11:28:07;;;;;;;4.08;2.77;;;;;;;-0.51;59.64;100329.98;1778456;80;21757;-84
2022/01/02 11:31:15;;;;;;;7.50;2.67;;;;;;;-0.53;59.09;100331.89;1780363;80;21188;-84
2022/01/02 11:34:34;;;;;;;2.45;2.00;;;;;;;-0.52;58.39;100324.20;1778523;80;21239;-84
2022/01/02 11:37:39;;;;;;;3.15;1.80;;;;;;;-0.47;59.25;100323.89;1780029;80;21833;-84
2022/01/02 11:41:02;;;;;;;7.90;1.92;;;;;;;-0.39;60.29;100334.98;1779807;80;21860;-84
2022/01/02 11:44:09;;;;;;;2.00;1.60;;;;;;;-0.33;60.51;100335.89;1779003;80;21802;-84
2022/01/02 11:47:15;;;;;;;2.62;1.87;;;;;;;-0.42;59.48;100341.44;1778251;80;21802;-84
2022/01/02 11:50:44;;;;;;;1.72;1.30;;;;;;;-0.49;59.83;100346.84;1779806;80;21857;-83
2022/01/02 11:53:54;;;;;;;3.60;1.32;;;;;;;-0.57;60.15;100343.81;1779345;80;21299;-84
2022/01/02 11:57:03;;;;;;;1.50;1.30;;;;;;;-0.65;60.23;100349.73;1780001;80;21362;-84
2022/01/02 12:00:08;;;;;;;2.65;1.75;;;;;;;-0.69;60.58;100353.58;1779812;80;21318;-83
2022/01/02 12:03:13;;;;;;;3.42;2.45;;;;;;;-0.68;60.73;100369.21;1779813;80;21327;-84
2022/01/02 12:06:32;;;;;;;10.05;3.77;;;;;;;-0.67;60.71;100381.67;1779789;80;21295;-84
2022/01/02 12:09:42;;;;;;;4.42;3.02;;;;;;;-0.66;61.22;100378.02;1778281;80;21200;-84
2022/01/02 12:13:17;;;;;;;5.85;3.40;;;;;;;-0.68;62.11;100382.64;1778513;80;21778;-83
2022/01/02 12:16:24;;;;;;;5.55;3.80;;;;;;;-0.68;62.60;100389.36;1779861;80;21758;-84
2022/01/02 12:19:30;;;;;;;7.92;3.40;;;;;;;-0.64;63.49;100393.56;1778356;80;21318;-84
2022/01/02 12:22:52;;;;;;;4.55;3.15;;;;;;;-0.62;62.86;100395.66;1778306;80;21850;-85
2022/01/02 12:25:57;;;;;;;5.75;2.70;;;;;;;-0.67;61.74;100398.66;1779849;80;21192;-85
2022/01/02 12:29:15;;;;;;;9.03;5.33;;;;;;;-0.70;62.49;100403.39;1757046;80;21861;-85
2022/01/02 12:32:20;;;;;;;16.48;6.12;;;;;;;-0.78;62.36;100409.27;1779785;80;21295;-85
2022/01/02 12:35:25;;;;;;;8.10;4.35;;;;;;;-0.84;62.68;100413.22;1778664;80;21830;-85
2022/01/02 12:38:30;;;;;;;11.57;6.55;;;;;;;-0.86;63.08;100425.01;1779749;80;21283;-85
2022/01/02 12:41:39;;;;;;;8.83;5.17;;;;;;;-0.86;62.86;100427.70;1779669;80;21299;-85
2022/01/02 12:44:44;;;;;;;8.13;4.75;;;;;;;-0.86;62.23;100436.61;1778972;80;21228;-85
2022/01/02 12:47:59;;;;;;;3.15;2.20;;;;;;;-0.86;62.20;100433.06;1779851;80;21188;-85
2022/01/02 12:51:15;;;;;;;2.55;2.00;;;;;;;-0.85;62.61;100441.50;1778433;80;21185;-85
2022/01/02 12:54:27;;;;;;;2.80;1.80;;;;;;;-0.86;62.29;100455.41;1779797;80;21192;-84
2022/01/02 12:57:30;;;;;;;3.30;2.20;;;;;;;-0.95;61.10;100444.41;1779720;80;21810;-85
2022/01/02 13:00:38;;;;;;;3.27;2.00;;;;;;;-1.04;61.69;100449.41;1778428;80;21779;-85
2022/01/02 13:03:46;;;;;;;5.33;2.67;;;;;;;-1.10;62.50;100469.09;1779484;80;21200;-84
2022/01/02 13:06:54;;;;;;;2.67;1.75;;;;;;;-1.16;62.94;100468.14;1779919;80;21295;-85
2022/01/02 13:10:05;;;;;;;4.78;2.25;;;;;;;-1.22;62.43;100461.35;1778220;80;21783;-85
2022/01/02 13:13:11;;;;;;;;;;;;;;;-1.27;63.02;100463.92;1782378;80;21184;-84
2022/01/02 13:16:18;;;;;;;5.25;2.58;;;;;;;-1.33;63.36;100475.42;1778480;80;20214;-85
2022/01/02 13:19:24;;;;;;;3.22;1.80;;;;;;;-1.41;63.10;100480.44;1777999;80;21200;-86
2022/01/02 13:22:32;;;;;;;2.72;1.92;;;;;;;-1.50;62.87;100471.62;1779810;80;21172;-84
2022/01/02 13:25:47;;;;;;;7.10;2.70;;;;;;;-1.57;63.23;100487.70;1778991;80;21225;-84
2022/01/02 13:28:53;;;;;;;3.25;2.05;;;;;;;-1.61;63.62;100488.84;1779666;80;21322;-85
2022/01/02 13:32:00;;;;;;;4.58;3.25;;;;;;;-1.65;63.61;100504.25;1778710;80;21298;-84
2022/01/02 13:35:10;;;;;;;2.27;1.80;;;;;;;-1.69;63.95;100507.24;1772960;80;21224;-85
2022/01/02 13:38:14;;;;;;;2.47;2.00;;;;;;;-1.72;63.96;100500.72;1771579;81;21224;-85
2022/01/02 13:41:21;;;;;;;4.58;2.52;;;;;;;-1.82;63.04;100499.93;1771568;81;21815;-85
2022/01/02 13:44:27;;;;;;;4.50;2.37;;;;;;;-1.94;62.89;100500.66;1771049;81;21378;-84
2022/01/02 13:47:42;;;;;;;5.03;3.58;;;;;;;-2.02;63.11;100502.06;1770005;81;21850;-84
2022/01/02 13:50:58;;;;;;;6.47;4.53;;;;;;;-2.13;63.22;100500.89;1769975;81;21303;-84
2022/01/02 13:54:05;;;;;;;5.70;2.70;;;;;;;-2.26;63.73;100512.42;1769779;81;21232;-85
2022/01/02 13:57:12;;;;;;;5.28;2.95;;;;;;;-2.36;64.08;100510.76;1772048;81;21228;-85
2022/01/02 14:00:27;;;;;;;7.47;4.40;;;;;;;-2.46;64.44;100513.59;1770838;81;21266;-84
2022/01/02 14:03:40;;;;;;;5.35;3.00;;;;;;;-2.52;64.84;100513.48;1771274;81;21822;-85
2022/01/02 14:06:46;;;;;;;3.17;2.02;;;;;;;-2.57;64.81;100512.40;1770095;81;21165;-85
2022/01/02 14:10:02;;;;;;;3.87;2.60;;;;;;;-2.61;64.82;100518.87;1771335;81;21204;-84
2022/01/02 14:13:12;;;;;;;8.53;2.45;;;;;;;-2.60;65.01;100518.40;1770082;81;21181;-84
2022/01/02 14:17:14;;;;;;;4.45;2.55;;;;;;;-2.57;65.00;100519.58;1769973;81;21770;-84
2022/01/02 14:19:23;;;;;;;4.58;2.80;;;;;;;-2.57;65.02;100524.45;1761092;81;21338;-84
2022/01/02 14:22:30;;;;;;;5.50;2.98;;;;;;;-2.61;65.04;100524.23;1771459;81;21296;-84
2022/01/02 14:25:36;;;;;;;4.47;2.37;;;;;;;-2.63;64.99;100527.49;1771288;81;21334;-84
2022/01/02 14:28:41;;;;;;;3.00;2.47;;;;;;;-2.67;65.06;100530.43;1771349;81;21175;-84
2022/01/02 14:31:48;;;;;;;5.67;2.25;;;;;;;-2.70;64.87;100527.44;1771505;81;21307;-84
2022/01/02 14:34:53;;;;;;;5.78;2.27;;;;;;;-2.70;64.60;100538.14;1769545;81;22544;-84
2022/01/02 14:37:58;;;;;;;5.00;3.20;;;;;;;-2.71;64.54;100536.91;1764363;81;21275;-85
2022/01/02 14:41:03;;;;;;;3.75;2.30;;;;;;;-2.77;64.66;100537.26;1763027;81;21299;-85
2022/01/02 14:44:09;;;;;;;5.37;3.15;;;;;;;-2.84;64.76;100536.23;1763000;81;21185;-84